sensor_id;sensor_type;location;lat;lon;timestamp;pressure;altitude;pressure_sealevel;temperature;humidity
45369;BME280;51342;55.250;37.668;2023-02-10T00:00:16;100745.59;;;-2.24;72.92
45369;BME280;51342;55.250;37.668;2023-02-10T00:02:47;100736.00;;;-2.26;72.78
45369;BME280;51342;55.250;37.668;2023-02-10T00:05:19;100724.56;;;-2.30;72.81
45369;BME280;51342;55.250;37.668;2023-02-10T00:07:50;100724.03;;;-2.27;72.88
45369;BME280;51342;55.250;37.668;2023-02-10T00:10:22;100716.06;;;-2.30;73.20
45369;BME280;51342;55.250;37.668;2023-02-10T00:12:53;100715.16;;;-2.31;73.28
45369;BME280;51342;55.250;37.668;2023-02-10T00:15:24;100707.56;;;-2.31;73.20
45369;BME280;51342;55.250;37.668;2023-02-10T00:17:56;100716.97;;;-2.30;73.00
45369;BME280;51342;55.250;37.668;2023-02-10T00:20:28;100712.63;;;-2.31;73.04
45369;BME280;51342;55.250;37.668;2023-02-10T00:22:59;100700.47;;;-2.33;73.17
45369;BME280;51342;55.250;37.668;2023-02-10T00:25:30;100703.72;;;-2.34;73.16
45369;BME280;51342;55.250;37.668;2023-02-10T00:28:02;100697.56;;;-2.36;73.14
45369;BME280;51342;55.250;37.668;2023-02-10T00:30:36;100702.66;;;-2.36;73.06
45369;BME280;51342;55.250;37.668;2023-02-10T00:33:08;100693.00;;;-2.39;73.27
45369;BME280;51342;55.250;37.668;2023-02-10T00:35:39;100698.31;;;-2.37;73.35
45369;BME280;51342;55.250;37.668;2023-02-10T00:38:11;100689.41;;;-2.41;73.41
45369;BME280;51342;55.250;37.668;2023-02-10T00:40:45;100684.16;;;-2.43;73.14
45369;BME280;51342;55.250;37.668;2023-02-10T00:43:17;100681.78;;;-2.41;73.34
45369;BME280;51342;55.250;37.668;2023-02-10T00:45:48;100673.28;;;-2.42;73.17
45369;BME280;51342;55.250;37.668;2023-02-10T00:48:20;100666.41;;;-2.43;73.24
45369;BME280;51342;55.250;37.668;2023-02-10T00:50:51;100658.59;;;-2.44;73.52
45369;BME280;51342;55.250;37.668;2023-02-10T00:53:23;100651.72;;;-2.45;73.23
45369;BME280;51342;55.250;37.668;2023-02-10T00:55:55;100653.53;;;-2.44;73.27
45369;BME280;51342;55.250;37.668;2023-02-10T00:58:26;100653.53;;;-2.44;73.25
45369;BME280;51342;55.250;37.668;2023-02-10T01:00:58;100649.91;;;-2.46;73.28
45369;BME280;51342;55.250;37.668;2023-02-10T01:03:30;100641.03;;;-2.50;73.28
45369;BME280;51342;55.250;37.668;2023-02-10T01:06:02;100639.44;;;-2.49;73.25
45369;BME280;51342;55.250;37.668;2023-02-10T01:08:34;100631.44;;;-2.52;73.38
45369;BME280;51342;55.250;37.668;2023-02-10T01:11:08;100625.28;;;-2.54;73.29
45369;BME280;51342;55.250;37.668;2023-02-10T01:13:41;100629.97;;;-2.57;73.12
45369;BME280;51342;55.250;37.668;2023-02-10T01:16:14;100635.19;;;-2.56;73.24
45369;BME280;51342;55.250;37.668;2023-02-10T01:18:48;100631.75;;;-2.56;73.25
45369;BME280;51342;55.250;37.668;2023-02-10T01:21:20;100630.69;;;-2.58;73.26
45369;BME280;51342;55.250;37.668;2023-02-10T01:23:51;100623.41;;;-2.62;73.01
45369;BME280;51342;55.250;37.668;2023-02-10T01:26:23;100619.81;;;-2.64;72.65
45369;BME280;51342;55.250;37.668;2023-02-10T01:28:54;100616.69;;;-2.69;72.74
45369;BME280;51342;55.250;37.668;2023-02-10T01:31:26;100605.47;;;-2.71;72.48
45369;BME280;51342;55.250;37.668;2023-02-10T01:33:58;100608.19;;;-2.70;72.52
45369;BME280;51342;55.250;37.668;2023-02-10T01:36:29;100609.63;;;-2.72;72.20
45369;BME280;51342;55.250;37.668;2023-02-10T01:39:02;100604.91;;;-2.76;72.06
45369;BME280;51342;55.250;37.668;2023-02-10T01:41:35;100606.00;;;-2.74;72.27
45369;BME280;51342;55.250;37.668;2023-02-10T01:46:58;100589.53;;;-2.77;71.96
45369;BME280;51342;55.250;37.668;2023-02-10T01:49:35;100587.34;;;-2.81;71.42
45369;BME280;51342;55.250;37.668;2023-02-10T01:52:12;100586.94;;;-2.84;71.58
45369;BME280;51342;55.250;37.668;2023-02-10T01:54:49;100581.88;;;-2.84;71.43
45369;BME280;51342;55.250;37.668;2023-02-10T01:57:22;100588.06;;;-2.82;71.52
45369;BME280;51342;55.250;37.668;2023-02-10T01:59:55;100586.94;;;-2.84;71.52
45369;BME280;51342;55.250;37.668;2023-02-10T02:02:27;100584.06;;;-2.80;71.33
45369;BME280;51342;55.250;37.668;2023-02-10T02:05:00;100579.56;;;-2.83;71.39
45369;BME280;51342;55.250;37.668;2023-02-10T02:07:34;100578.28;;;-2.79;71.04
45369;BME280;51342;55.250;37.668;2023-02-10T02:10:06;100576.31;;;-2.82;71.10
45369;BME280;51342;55.250;37.668;2023-02-10T02:13:02;100578.09;;;-2.88;71.06
45369;BME280;51342;55.250;37.668;2023-02-10T02:15:50;100583.66;;;-2.90;71.08
45369;BME280;51342;55.250;37.668;2023-02-10T02:18:36;100582.03;;;-2.90;71.06
45369;BME280;51342;55.250;37.668;2023-02-10T02:29:48;100566.28;;;-2.95;71.04
45369;BME280;51342;55.250;37.668;2023-02-10T02:32:28;100557.06;;;-2.94;70.80
45369;BME280;51342;55.250;37.668;2023-02-10T02:35:13;100547.44;;;-3.04;70.94
45369;BME280;51342;55.250;37.668;2023-02-10T02:37:48;100545.66;;;-2.98;70.95
45369;BME280;51342;55.250;37.668;2023-02-10T02:40:21;100540.25;;;-2.94;70.91
45369;BME280;51342;55.250;37.668;2023-02-10T02:42:52;100542.97;;;-2.92;70.91
45369;BME280;51342;55.250;37.668;2023-02-10T02:55:12;100512.16;;;-3.02;70.91
45369;BME280;51342;55.250;37.668;2023-02-10T03:00:07;100504.41;;;-2.97;70.90
45369;BME280;51342;55.250;37.668;2023-02-10T03:02:40;100501.16;;;-2.96;70.70
45369;BME280;51342;55.250;37.668;2023-02-10T03:05:23;100501.31;;;-3.01;70.70
45369;BME280;51342;55.250;37.668;2023-02-10T03:07:58;100497.56;;;-2.98;70.79
45369;BME280;51342;55.250;37.668;2023-02-10T03:10:30;100498.47;;;-2.97;70.74
45369;BME280;51342;55.250;37.668;2023-02-10T03:13:01;100492.81;;;-3.02;70.63
45369;BME280;51342;55.250;37.668;2023-02-10T03:15:32;100489.78;;;-2.99;70.67
45369;BME280;51342;55.250;37.668;2023-02-10T03:18:04;100485.78;;;-2.97;70.69
45369;BME280;51342;55.250;37.668;2023-02-10T03:20:35;100479.09;;;-2.97;70.84
45369;BME280;51342;55.250;37.668;2023-02-10T03:23:07;100470.44;;;-2.99;70.68
45369;BME280;51342;55.250;37.668;2023-02-10T03:25:38;100468.63;;;-3.00;70.69
45369;BME280;51342;55.250;37.668;2023-02-10T03:28:10;100473.88;;;-2.98;70.64
45369;BME280;51342;55.250;37.668;2023-02-10T03:30:41;100463.56;;;-3.00;70.55
45369;BME280;51342;55.250;37.668;2023-02-10T03:33:22;100459.91;;;-3.02;70.46
45369;BME280;51342;55.250;37.668;2023-02-10T03:35:53;100460.13;;;-3.00;70.53
45369;BME280;51342;55.250;37.668;2023-02-10T03:38:26;100457.38;;;-3.02;70.48
45369;BME280;51342;55.250;37.668;2023-02-10T03:40:57;100457.59;;;-3.00;70.44
45369;BME280;51342;55.250;37.668;2023-02-10T03:43:29;100453.22;;;-3.01;70.71
45369;BME280;51342;55.250;37.668;2023-02-10T03:46:01;100442.41;;;-3.00;70.38
45369;BME280;51342;55.250;37.668;2023-02-10T03:48:33;100445.63;;;-3.01;70.32
45369;BME280;51342;55.250;37.668;2023-02-10T03:51:07;100440.22;;;-3.04;70.42
45369;BME280;51342;55.250;37.668;2023-02-10T03:53:39;100421.75;;;-3.10;70.17
45369;BME280;51342;55.250;37.668;2023-02-10T03:56:10;100427.56;;;-3.04;70.20
45369;BME280;51342;55.250;37.668;2023-02-10T03:58:42;100420.88;;;-3.04;70.20
45369;BME280;51342;55.250;37.668;2023-02-10T04:01:15;100412.19;;;-3.06;70.01
45369;BME280;51342;55.250;37.668;2023-02-10T04:03:47;100406.22;;;-3.06;70.06
45369;BME280;51342;55.250;37.668;2023-02-10T04:06:18;100400.78;;;-3.09;69.97
45369;BME280;51342;55.250;37.668;2023-02-10T04:08:50;100393.91;;;-3.10;70.12
45369;BME280;51342;55.250;37.668;2023-02-10T04:11:22;100389.56;;;-3.11;69.98
45369;BME280;51342;55.250;37.668;2023-02-10T04:13:53;100388.47;;;-3.13;70.15
45369;BME280;51342;55.250;37.668;2023-02-10T04:16:25;100386.31;;;-3.17;69.89
45369;BME280;51342;55.250;37.668;2023-02-10T04:18:58;100390.81;;;-3.15;70.18
45369;BME280;51342;55.250;37.668;2023-02-10T04:21:30;100386.50;;;-3.16;70.02
45369;BME280;51342;55.250;37.668;2023-02-10T04:24:01;100381.59;;;-3.14;70.01
45369;BME280;51342;55.250;37.668;2023-02-10T04:26:33;100368.03;;;-3.15;70.08
45369;BME280;51342;55.250;37.668;2023-02-10T04:29:04;100366.97;;;-3.17;69.92
45369;BME280;51342;55.250;37.668;2023-02-10T04:31:36;100368.22;;;-3.21;69.99
45369;BME280;51342;55.250;37.668;2023-02-10T04:34:07;100370.00;;;-3.20;70.01
45369;BME280;51342;55.250;37.668;2023-02-10T04:36:38;100369.44;;;-3.24;70.17
45369;BME280;51342;55.250;37.668;2023-02-10T04:39:10;100373.09;;;-3.22;70.07
45369;BME280;51342;55.250;37.668;2023-02-10T04:41:41;100368.94;;;-3.22;70.21
45369;BME280;51342;55.250;37.668;2023-02-10T04:44:13;100366.22;;;-3.23;70.10
45369;BME280;51342;55.250;37.668;2023-02-10T04:46:44;100354.28;;;-3.24;70.29
45369;BME280;51342;55.250;37.668;2023-02-10T04:49:16;100361.69;;;-3.26;70.24
45369;BME280;51342;55.250;37.668;2023-02-10T04:51:47;100360.97;;;-3.25;70.30
45369;BME280;51342;55.250;37.668;2023-02-10T04:54:19;100362.41;;;-3.27;70.21
45369;BME280;51342;55.250;37.668;2023-02-10T04:56:51;100368.19;;;-3.28;70.34
45369;BME280;51342;55.250;37.668;2023-02-10T04:59:22;100363.31;;;-3.26;70.47
45369;BME280;51342;55.250;37.668;2023-02-10T05:01:54;100363.50;;;-3.25;70.38
45369;BME280;51342;55.250;37.668;2023-02-10T05:04:25;100363.31;;;-3.26;70.45
45369;BME280;51342;55.250;37.668;2023-02-10T05:06:56;100357.88;;;-3.29;70.51
45369;BME280;51342;55.250;37.668;2023-02-10T05:09:29;100369.44;;;-3.24;70.70
45369;BME280;51342;55.250;37.668;2023-02-10T05:12:00;100362.59;;;-3.25;70.62
45369;BME280;51342;55.250;37.668;2023-02-10T05:14:32;100355.91;;;-3.25;70.85
45369;BME280;51342;55.250;37.668;2023-02-10T05:17:03;100360.22;;;-3.24;70.61
45369;BME280;51342;55.250;37.668;2023-02-10T05:19:35;100356.09;;;-3.23;70.53
45369;BME280;51342;55.250;37.668;2023-02-10T05:22:06;100348.69;;;-3.22;70.59
45369;BME280;51342;55.250;37.668;2023-02-10T05:24:37;100350.50;;;-3.21;70.78
45369;BME280;51342;55.250;37.668;2023-02-10T05:27:09;100348.34;;;-3.17;70.68
45369;BME280;51342;55.250;37.668;2023-02-10T05:29:40;100343.97;;;-3.18;70.74
45369;BME280;51342;55.250;37.668;2023-02-10T05:32:11;100335.31;;;-3.21;70.82
45369;BME280;51342;55.250;37.668;2023-02-10T05:34:43;100330.97;;;-3.14;70.87
45369;BME280;51342;55.250;37.668;2023-02-10T05:37:14;100339.47;;;-3.14;70.89
45369;BME280;51342;55.250;37.668;2023-02-10T05:39:46;100331.88;;;-3.14;70.70
45369;BME280;51342;55.250;37.668;2023-02-10T05:42:17;100334.06;;;-3.17;70.82
45369;BME280;51342;55.250;37.668;2023-02-10T05:44:48;100335.88;;;-3.16;70.79
45369;BME280;51342;55.250;37.668;2023-02-10T05:47:20;100314.16;;;-3.21;70.73
45369;BME280;51342;55.250;37.668;2023-02-10T05:49:51;100327.00;;;-3.20;70.78
45369;BME280;51342;55.250;37.668;2023-02-10T05:52:23;100325.19;;;-3.21;70.73
45369;BME280;51342;55.250;37.668;2023-02-10T05:54:54;100310.00;;;-3.28;70.73
45369;BME280;51342;55.250;37.668;2023-02-10T05:57:26;100321.03;;;-3.27;70.63
45369;BME280;51342;55.250;37.668;2023-02-10T05:59:57;100323.56;;;-3.27;70.71
45369;BME280;51342;55.250;37.668;2023-02-10T06:02:28;100315.41;;;-3.25;70.73
45369;BME280;51342;55.250;37.668;2023-02-10T06:05:00;100304.22;;;-3.20;70.90
45369;BME280;51342;55.250;37.668;2023-02-10T06:07:32;100299.88;;;-3.13;70.71
45369;BME280;51342;55.250;37.668;2023-02-10T06:10:04;100307.13;;;-3.02;70.58
45369;BME280;51342;55.250;37.668;2023-02-10T06:12:36;100301.72;;;-2.91;70.71
45369;BME280;51342;55.250;37.668;2023-02-10T06:15:07;100303.34;;;-2.84;70.34
45369;BME280;51342;55.250;37.668;2023-02-10T06:17:39;100306.81;;;-2.77;70.32
45369;BME280;51342;55.250;37.668;2023-02-10T06:20:10;100300.84;;;-2.70;70.18
45369;BME280;51342;55.250;37.668;2023-02-10T06:22:42;100293.06;;;-2.64;70.07
45369;BME280;51342;55.250;37.668;2023-02-10T06:25:14;100286.34;;;-2.57;70.01
45369;BME280;51342;55.250;37.668;2023-02-10T06:27:45;100278.22;;;-2.54;70.04
45369;BME280;51342;55.250;37.668;2023-02-10T06:30:16;100267.53;;;-2.52;69.86
45369;BME280;51342;55.250;37.668;2023-02-10T06:32:48;100257.22;;;-2.53;69.87
45369;BME280;51342;55.250;37.668;2023-02-10T06:35:19;100263.38;;;-2.51;69.94
45369;BME280;51342;55.250;37.668;2023-02-10T06:37:51;100253.22;;;-2.51;69.79
45369;BME280;51342;55.250;37.668;2023-02-10T06:40:22;100248.72;;;-2.47;69.86
45369;BME280;51342;55.250;37.668;2023-02-10T06:42:54;100236.19;;;-2.45;69.65
45369;BME280;51342;55.250;37.668;2023-02-10T06:45:25;100229.16;;;-2.48;69.59
45369;BME280;51342;55.250;37.668;2023-02-10T06:47:56;100233.34;;;-2.48;69.67
45369;BME280;51342;55.250;37.668;2023-02-10T06:50:28;100226.63;;;-2.48;69.39
45369;BME280;51342;55.250;37.668;2023-02-10T06:52:59;100230.44;;;-2.51;69.34
45369;BME280;51342;55.250;37.668;2023-02-10T06:55:31;100218.84;;;-2.56;69.37
45369;BME280;51342;55.250;37.668;2023-02-10T06:58:03;100209.28;;;-2.59;69.23
45369;BME280;51342;55.250;37.668;2023-02-10T07:00:34;100194.09;;;-2.59;69.24
45369;BME280;51342;55.250;37.668;2023-02-10T07:03:05;100204.75;;;-2.61;69.16
45369;BME280;51342;55.250;37.668;2023-02-10T07:05:37;100201.31;;;-2.62;68.98
45369;BME280;51342;55.250;37.668;2023-02-10T07:08:08;100183.22;;;-2.58;69.26
45369;BME280;51342;55.250;37.668;2023-02-10T07:10:39;100182.09;;;-2.46;68.94
45369;BME280;51342;55.250;37.668;2023-02-10T07:13:11;100182.44;;;-2.35;68.78
45369;BME280;51342;55.250;37.668;2023-02-10T07:15:43;100156.53;;;-2.33;68.36
45369;BME280;51342;55.250;37.668;2023-02-10T07:18:14;100154.38;;;-2.30;68.62
45369;BME280;51342;55.250;37.668;2023-02-10T07:20:45;100162.13;;;-2.21;68.18
45369;BME280;51342;55.250;37.668;2023-02-10T07:23:17;100144.91;;;-2.24;68.12
45369;BME280;51342;55.250;37.668;2023-02-10T07:25:48;100126.81;;;-2.20;68.17
45369;BME280;51342;55.250;37.668;2023-02-10T07:28:19;100117.56;;;-2.19;67.90
45369;BME280;51342;55.250;37.668;2023-02-10T07:30:51;100101.47;;;-2.20;67.93
45369;BME280;51342;55.250;37.668;2023-02-10T07:33:22;100080.97;;;-2.14;67.71
45369;BME280;51342;55.250;37.668;2023-02-10T07:35:54;100072.47;;;-2.15;67.52
45369;BME280;51342;55.250;37.668;2023-02-10T07:38:25;100067.41;;;-2.15;67.53
45369;BME280;51342;55.250;37.668;2023-02-10T07:40:57;100067.72;;;-2.11;67.50
45369;BME280;51342;55.250;37.668;2023-02-10T07:43:29;100059.06;;;-2.14;67.15
45369;BME280;51342;55.250;37.668;2023-02-10T07:46:08;100073.91;;;-2.17;67.21
45369;BME280;51342;55.250;37.668;2023-02-10T07:48:40;100054.94;;;-2.20;67.29
45369;BME280;51342;55.250;37.668;2023-02-10T07:51:11;100058.91;;;-2.15;67.13
45369;BME280;51342;55.250;37.668;2023-02-10T07:53:43;100061.06;;;-2.18;67.01
45369;BME280;51342;55.250;37.668;2023-02-10T07:56:14;100050.19;;;-2.17;67.00
45369;BME280;51342;55.250;37.668;2023-02-10T07:58:45;100054.72;;;-2.15;66.55
45369;BME280;51342;55.250;37.668;2023-02-10T08:01:17;100050.63;;;-2.21;66.83
45369;BME280;51342;55.250;37.668;2023-02-10T08:03:49;100052.19;;;-2.15;66.69
45369;BME280;51342;55.250;37.668;2023-02-10T08:06:21;100034.72;;;-2.04;66.58
45369;BME280;51342;55.250;37.668;2023-02-10T08:08:53;100034.41;;;-1.84;66.32
45369;BME280;51342;55.250;37.668;2023-02-10T08:11:24;100013.44;;;-1.68;65.76
45369;BME280;51342;55.250;37.668;2023-02-10T08:13:56;100022.66;;;-1.45;65.18
45369;BME280;51342;55.250;37.668;2023-02-10T08:16:27;100007.03;;;-1.25;64.98
45369;BME280;51342;55.250;37.668;2023-02-10T08:18:59;100002.47;;;-1.05;65.01
45369;BME280;51342;55.250;37.668;2023-02-10T08:21:30;100018.00;;;-0.86;64.66
45369;BME280;51342;55.250;37.668;2023-02-10T08:24:02;100016.88;;;-0.81;64.68
45369;BME280;51342;55.250;37.668;2023-02-10T08:26:33;100008.19;;;-0.83;64.19
45369;BME280;51342;55.250;37.668;2023-02-10T08:29:05;100017.19;;;-0.78;64.19
45369;BME280;51342;55.250;37.668;2023-02-10T08:31:38;100025.38;;;-0.81;64.10
45369;BME280;51342;55.250;37.668;2023-02-10T08:34:14;100025.63;;;-0.86;63.99
45369;BME280;51342;55.250;37.668;2023-02-10T08:36:49;100030.56;;;-0.88;64.04
45369;BME280;51342;55.250;37.668;2023-02-10T08:39:20;100034.41;;;-0.91;63.89
45369;BME280;51342;55.250;37.668;2023-02-10T08:41:52;100020.34;;;-0.96;63.92
45369;BME280;51342;55.250;37.668;2023-02-10T08:44:24;100030.41;;;-0.89;63.73
45369;BME280;51342;55.250;37.668;2023-02-10T08:46:55;100027.91;;;-0.81;63.53
45369;BME280;51342;55.250;37.668;2023-02-10T08:49:26;100017.09;;;-0.71;63.56
45369;BME280;51342;55.250;37.668;2023-02-10T08:51:58;100004.31;;;-0.64;63.06
45369;BME280;51342;55.250;37.668;2023-02-10T08:54:31;100020.53;;;-0.55;62.78
45369;BME280;51342;55.250;37.668;2023-02-10T08:57:02;100012.16;;;-0.54;62.60
45369;BME280;51342;55.250;37.668;2023-02-10T08:59:34;100017.56;;;-0.50;62.02
45369;BME280;51342;55.250;37.668;2023-02-10T09:02:06;100006.81;;;-0.48;62.18
45369;BME280;51342;55.250;37.668;2023-02-10T09:04:38;100000.44;;;-0.44;62.16
45369;BME280;51342;55.250;37.668;2023-02-10T09:07:09;99997.63;;;-0.39;61.69
45369;BME280;51342;55.250;37.668;2023-02-10T09:09:42;100007.09;;;-0.29;61.54
45369;BME280;51342;55.250;37.668;2023-02-10T09:12:14;99999.94;;;-0.24;60.93
45369;BME280;51342;55.250;37.668;2023-02-10T09:14:45;99992.81;;;-0.20;60.98
45369;BME280;51342;55.250;37.668;2023-02-10T09:17:17;99994.47;;;-0.12;61.18
45369;BME280;51342;55.250;37.668;2023-02-10T09:19:48;99985.88;;;-0.05;60.90
45369;BME280;51342;55.250;37.668;2023-02-10T09:22:20;99984.69;;;0.00;61.27
45369;BME280;51342;55.250;37.668;2023-02-10T09:24:51;99961.63;;;-0.02;60.16
45369;BME280;51342;55.250;37.668;2023-02-10T09:27:23;99957.69;;;-0.07;60.71
45369;BME280;51342;55.250;37.668;2023-02-10T09:29:54;99965.53;;;-0.05;60.72
45369;BME280;51342;55.250;37.668;2023-02-10T09:32:26;99959.97;;;-0.01;60.51
45369;BME280;51342;55.250;37.668;2023-02-10T09:34:57;99955.22;;;0.02;60.49
45369;BME280;51342;55.250;37.668;2023-02-10T09:37:28;99938.03;;;0.08;60.72
45369;BME280;51342;55.250;37.668;2023-02-10T09:40:00;99931.44;;;0.10;60.41
45369;BME280;51342;55.250;37.668;2023-02-10T09:45:26;99909.16;;;0.08;60.34
45369;BME280;51342;55.250;37.668;2023-02-10T09:53:31;99897.47;;;0.10;60.20
45369;BME280;51342;55.250;37.668;2023-02-10T09:56:14;99876.84;;;0.07;59.65
45369;BME280;51342;55.250;37.668;2023-02-10T09:58:55;99863.22;;;0.06;59.97
45369;BME280;51342;55.250;37.668;2023-02-10T10:01:45;99872.31;;;0.04;59.58
45369;BME280;51342;55.250;37.668;2023-02-10T10:04:20;99862.91;;;0.03;59.59
45369;BME280;51342;55.250;37.668;2023-02-10T10:09:43;99856.03;;;0.02;59.29
45369;BME280;51342;55.250;37.668;2023-02-10T10:12:17;99845.84;;;0.02;59.06
45369;BME280;51342;55.250;37.668;2023-02-10T10:14:50;99855.88;;;0.01;59.15
45369;BME280;51342;55.250;37.668;2023-02-10T10:20:43;99855.38;;;-0.13;59.50
45369;BME280;51342;55.250;37.668;2023-02-10T10:26:54;99854.19;;;-0.16;59.60
45369;BME280;51342;55.250;37.668;2023-02-10T10:32:15;99845.19;;;-0.21;59.42
45369;BME280;51342;55.250;37.668;2023-02-10T10:34:51;99839.50;;;-0.19;58.92
45369;BME280;51342;55.250;37.668;2023-02-10T10:37:25;99837.84;;;-0.18;59.40
45369;BME280;51342;55.250;37.668;2023-02-10T10:40:04;99837.69;;;-0.20;59.01
45369;BME280;51342;55.250;37.668;2023-02-10T10:42:41;99830.97;;;-0.19;59.09
45369;BME280;51342;55.250;37.668;2023-02-10T10:45:22;99832.94;;;-0.17;58.88
45369;BME280;51342;55.250;37.668;2023-02-10T10:50:30;99811.25;;;-0.13;59.00
45369;BME280;51342;55.250;37.668;2023-02-10T10:53:05;99811.38;;;-0.12;59.07
45369;BME280;51342;55.250;37.668;2023-02-10T10:56:03;99814.53;;;-0.14;58.88
45369;BME280;51342;55.250;37.668;2023-02-10T10:58:44;99806.47;;;-0.10;59.00
45369;BME280;51342;55.250;37.668;2023-02-10T11:01:17;99798.56;;;-0.05;58.96
45369;BME280;51342;55.250;37.668;2023-02-10T11:03:49;99790.19;;;-0.04;58.81
45369;BME280;51342;55.250;37.668;2023-02-10T11:06:48;99782.97;;;-0.08;58.72
45369;BME280;51342;55.250;37.668;2023-02-10T11:09:26;99772.81;;;-0.08;58.61
45369;BME280;51342;55.250;37.668;2023-02-10T11:12:05;99766.25;;;-0.06;58.56
45369;BME280;51342;55.250;37.668;2023-02-10T11:14:37;99765.16;;;-0.25;59.39
45369;BME280;51342;55.250;37.668;2023-02-10T11:17:21;99763.81;;;-0.13;58.94
45369;BME280;51342;55.250;37.668;2023-02-10T11:20:00;99754.53;;;-0.12;58.56
45369;BME280;51342;55.250;37.668;2023-02-10T11:22:32;99773.81;;;-0.23;59.24
45369;BME280;51342;55.250;37.668;2023-02-10T11:27:56;99755.75;;;-0.09;58.07
45369;BME280;51342;55.250;37.668;2023-02-10T11:30:34;99749.03;;;-0.08;58.21
45369;BME280;51342;55.250;37.668;2023-02-10T11:33:22;99734.66;;;-0.08;57.99
45369;BME280;51342;55.250;37.668;2023-02-10T11:36:06;99736.91;;;-0.02;58.22
45369;BME280;51342;55.250;37.668;2023-02-10T11:38:40;99724.66;;;0.03;58.19
45369;BME280;51342;55.250;37.668;2023-02-10T11:41:12;99725.69;;;0.05;57.83
45369;BME280;51342;55.250;37.668;2023-02-10T11:43:46;99729.31;;;0.07;57.62
45369;BME280;51342;55.250;37.668;2023-02-10T11:46:23;99726.75;;;0.07;57.80
45369;BME280;51342;55.250;37.668;2023-02-10T11:49:02;99733.66;;;0.08;57.54
45369;BME280;51342;55.250;37.668;2023-02-10T11:51:34;99721.38;;;0.04;57.35
45369;BME280;51342;55.250;37.668;2023-02-10T11:54:06;99729.31;;;0.07;57.59
45369;BME280;51342;55.250;37.668;2023-02-10T12:08:29;99723.75;;;-0.07;57.31
45369;BME280;51342;55.250;37.668;2023-02-10T12:11:19;99711.78;;;-0.08;57.44
45369;BME280;51342;55.250;37.668;2023-02-10T12:26:08;99679.75;;;-0.23;57.16
45369;BME280;51342;55.250;37.668;2023-02-10T12:29:06;99668.97;;;-0.29;57.54
45369;BME280;51342;55.250;37.668;2023-02-10T12:54:34;99618.91;;;-0.39;57.04
45369;BME280;51342;55.250;37.668;2023-02-10T12:57:12;99623.66;;;-0.42;56.71
45369;BME280;51342;55.250;37.668;2023-02-10T12:59:48;99624.69;;;-0.66;57.47
45369;BME280;51342;55.250;37.668;2023-02-10T13:05:10;99622.44;;;-0.63;57.26
45369;BME280;51342;55.250;37.668;2023-02-10T13:07:56;99635.59;;;-0.67;57.02
45369;BME280;51342;55.250;37.668;2023-02-10T13:10:39;99630.63;;;-0.74;57.29
45369;BME280;51342;55.250;37.668;2023-02-10T13:13:16;99632.13;;;-0.76;57.14
45369;BME280;51342;55.250;37.668;2023-02-10T13:16:08;99629.00;;;-0.82;57.03
45369;BME280;51342;55.250;37.668;2023-02-10T13:18:59;99630.59;;;-0.91;57.34
45369;BME280;51342;55.250;37.668;2023-02-10T13:33:04;99606.78;;;-1.18;57.16
45369;BME280;51342;55.250;37.668;2023-02-10T13:35:43;99607.53;;;-1.19;57.04
45369;BME280;51342;55.250;37.668;2023-02-10T13:38:18;99605.41;;;-1.23;57.15
45369;BME280;51342;55.250;37.668;2023-02-10T13:40:53;99601.50;;;-1.28;57.03
45369;BME280;51342;55.250;37.668;2023-02-10T13:43:46;99603.00;;;-1.30;57.33
45369;BME280;51342;55.250;37.668;2023-02-10T13:46:25;99608.50;;;-1.34;57.31
45369;BME280;51342;55.250;37.668;2023-02-10T13:48:59;99600.28;;;-1.40;57.19
45369;BME280;51342;55.250;37.668;2023-02-10T13:51:34;99617.16;;;-1.41;57.63
45369;BME280;51342;55.250;37.668;2023-02-10T13:54:23;99610.97;;;-1.51;57.42
45369;BME280;51342;55.250;37.668;2023-02-10T13:56:56;99613.50;;;-1.51;57.53
45369;BME280;51342;55.250;37.668;2023-02-10T13:59:37;99610.66;;;-1.54;57.63
45369;BME280;51342;55.250;37.668;2023-02-10T14:02:11;99614.97;;;-1.53;57.63
45369;BME280;51342;55.250;37.668;2023-02-10T14:04:45;99598.41;;;-1.58;57.53
45369;BME280;51342;55.250;37.668;2023-02-10T14:12:57;99606.97;;;-1.74;57.71
45369;BME280;51342;55.250;37.668;2023-02-10T14:15:39;99602.16;;;-1.79;57.94
45369;BME280;51342;55.250;37.668;2023-02-10T14:18:24;99605.13;;;-1.83;58.02
45369;BME280;51342;55.250;37.668;2023-02-10T14:20:57;99610.94;;;-1.84;58.25
45369;BME280;51342;55.250;37.668;2023-02-10T14:23:33;99612.41;;;-1.87;58.53
45369;BME280;51342;55.250;37.668;2023-02-10T14:26:17;99610.78;;;-1.86;58.26
45369;BME280;51342;55.250;37.668;2023-02-10T14:28:53;99618.22;;;-1.88;58.47
45369;BME280;51342;55.250;37.668;2023-02-10T14:31:30;99618.22;;;-1.88;58.46
45369;BME280;51342;55.250;37.668;2023-02-10T14:34:36;99625.19;;;-1.94;58.53
45369;BME280;51342;55.250;37.668;2023-02-10T14:37:18;99627.16;;;-1.91;58.88
45369;BME280;51342;55.250;37.668;2023-02-10T14:39:58;99625.50;;;-1.91;58.92
45369;BME280;51342;55.250;37.668;2023-02-10T14:42:31;99617.75;;;-1.92;58.89
45369;BME280;51342;55.250;37.668;2023-02-10T14:45:03;99605.78;;;-1.93;59.22
45369;BME280;51342;55.250;37.668;2023-02-10T14:47:38;99605.78;;;-1.93;59.22
45369;BME280;51342;55.250;37.668;2023-02-10T14:50:30;99620.69;;;-1.96;59.31
45369;BME280;51342;55.250;37.668;2023-02-10T14:53:03;99618.16;;;-1.96;59.27
45369;BME280;51342;55.250;37.668;2023-02-10T14:55:37;99608.59;;;-1.99;59.66
45369;BME280;51342;55.250;37.668;2023-02-10T14:58:12;99618.31;;;-1.95;59.64
45369;BME280;51342;55.250;37.668;2023-02-10T15:03:53;99605.41;;;-2.05;59.75
45369;BME280;51342;55.250;37.668;2023-02-10T15:06:27;99609.94;;;-2.02;59.76
45369;BME280;51342;55.250;37.668;2023-02-10T15:09:04;99609.19;;;-2.01;60.14
45369;BME280;51342;55.250;37.668;2023-02-10T15:11:48;99610.97;;;-2.00;60.12
45369;BME280;51342;55.250;37.668;2023-02-10T15:14:44;99601.56;;;-2.01;60.03
45369;BME280;51342;55.250;37.668;2023-02-10T15:17:21;99607.28;;;-1.95;60.15